CYVM/YVM METAR and TAF weather

Enter ICAO airport designator
Station Type Date Time Source
CYVM METAR 2018/10/22 16:00 UTC NOAA

CYVM 221600Z 14006KT 12SM IC FEW010 SCT030 BKN250 M10/M12 A2999 RMK ST1SC3CC3 ST TR SLP158


Station Type Date Time Source
CYVM Decoded METAR 2018/10/22 16:00 UTC NOAA

Broughton Island Airport, Canada (CYVM) 67-33N 064-02W
Oct 22, 2018 - 12:00 PM EDT / 2018.10.22 1600 UTC
Wind: from the SE (140 degrees) at 7 MPH (6 KT):0
Visibility: 12 mile(s):0
Sky conditions: mostly cloudy
Weather: ice crystals
Temperature: 14 F (-10 C)
Windchill: 3 F (-16 C):1
Dew Point: 10 F (-12 C)
Relative Humidity: 85%
Pressure (altimeter): 29.99 in. Hg (1015 hPa)
ob: CYVM 221600Z 14006KT 12SM IC FEW010 SCT030 BKN250 M10/M12 A2999 RMK ST1SC3CC3 ST TR SLP158
cycle: 16

Station Type Date Time Source
CYVM TAF 2018/10/22 13:42 UTC NOAA

TAF CYVM 221239Z 2213/2301 VRB03KT P6SM FEW020 SCT060 BKN100
TEMPO 2213/2218 P6SM VCSH SCT020 BKN050
FM221800 19008KT P6SM FEW030 SCT100
RMK NXT FCST BY 221900Z


Example: see airport list